Terminal Aerodrome Forecast
Issued by NWS

Home | Current Version | Previous Version | Graphics & Text | Print | Product List | Glossary On
Versions: 1 2 3 4 5 6 7 8 9 10 11 12 13 14 15 16 17 18 19 20 21 22 23 24
000
FTUS43 KGRB 011300 AAB
TAFATW
TAF AMD
KATW 011326Z 0113/0212 09003KT 5SM BR OVC015
      TEMPO 0113/0115 P6SM NSW OVC020
     FM011500 13007KT P6SM BKN020
     FM012000 14008KT P6SM BKN022 BKN080
     FM020100 15006KT 5SM BR SCT009 OVC015
      TEMPO 0201/0205 2SM -RA BR BKN009
     FM020500 13004KT 2SM -RA BR OVC008=

USA.gov is the U.S. government's official web portal to all federal, state and local government web resources and services.